createdAt,value
2018-12-30T00:00:29.216Z,48.80
2018-12-30T00:01:29.454Z,48.30
2018-12-30T00:03:33.590Z,49.80
2018-12-30T00:04:33.932Z,48.40
2018-12-30T00:06:40.115Z,45.70
2018-12-30T00:07:38.346Z,45.70
2018-12-30T00:09:42.490Z,41.20
2018-12-30T00:10:42.726Z,42.80
2018-12-30T00:12:46.889Z,40.30
2018-12-30T00:13:47.116Z,40.00
2018-12-30T00:15:51.256Z,33.80
2018-12-30T00:16:51.492Z,35.80
2018-12-30T00:18:55.654Z,30.80
2018-12-30T00:19:55.887Z,30.30
2018-12-30T00:22:00.050Z,26.90
2018-12-30T00:23:00.281Z,25.10
2018-12-30T00:24:53.347Z,23.50
2018-12-30T00:25:53.581Z,24.60
2018-12-30T00:27:57.743Z,26.60
2018-12-30T00:28:57.976Z,21.00
2018-12-30T00:31:02.127Z,21.90
2018-12-30T00:32:02.358Z,24.00
2018-12-30T00:34:06.519Z,23.40
2018-12-30T00:35:06.753Z,22.60
2018-12-30T00:37:10.915Z,22.20
2018-12-30T00:38:11.150Z,22.50
2018-12-30T00:40:15.295Z,23.40
2018-12-30T00:41:15.530Z,20.30
2018-12-30T00:43:19.690Z,23.60
2018-12-30T00:44:19.926Z,20.30
2018-12-30T00:46:24.062Z,22.80
2018-12-30T00:47:24.296Z,21.50
2018-12-30T00:49:28.462Z,18.30
2018-12-30T00:50:28.691Z,19.20
2018-12-30T00:52:32.854Z,17.30
2018-12-30T00:53:33.091Z,17.80
2018-12-30T00:55:26.156Z,18.70
2018-12-30T00:56:26.391Z,20.40
2018-12-30T00:58:31.109Z,16.10
2018-12-30T00:59:30.788Z,15.20
2018-12-30T01:01:34.926Z,15.50
2018-12-30T01:02:35.163Z,17.10
2018-12-30T01:04:39.325Z,16.40
2018-12-30T01:05:39.558Z,19.30
2018-12-30T01:07:43.702Z,14.90
2018-12-30T01:08:43.932Z,15.30
2018-12-30T01:10:48.095Z,14.60
2018-12-30T01:11:48.326Z,12.90
2018-12-30T01:13:52.491Z,14.90
2018-12-30T01:14:52.725Z,14.70
2018-12-30T01:16:56.871Z,13.90
2018-12-30T01:17:57.105Z,8.40
2018-12-30T01:20:01.278Z,9.20
2018-12-30T01:21:01.511Z,11.50
2018-12-30T01:23:05.652Z,8.00
2018-12-30T01:24:05.888Z,6.20
2018-12-30T01:26:10.048Z,7.10
2018-12-30T01:27:10.286Z,5.20
2018-12-30T01:29:14.443Z,4.00
2018-12-30T01:30:14.678Z,5.00
2018-12-30T01:32:18.821Z,2.90
2018-12-30T01:33:19.057Z,4.10
2018-12-30T01:35:12.148Z,3.70
2018-12-30T01:36:12.383Z,3.10
2018-12-30T01:38:16.521Z,2.70
2018-12-30T01:39:16.755Z,3.50
2018-12-30T01:41:20.916Z,3.00
2018-12-30T01:42:21.151Z,3.20
2018-12-30T01:44:25.311Z,4.20
2018-12-30T01:45:25.547Z,4.30
2018-12-30T01:47:29.686Z,1.10
2018-12-30T01:48:29.922Z,2.00
2018-12-30T01:50:34.085Z,2.50
2018-12-30T01:51:34.320Z,1.40
2018-12-30T01:53:38.463Z,2.60
2018-12-30T01:54:38.699Z,2.20
2018-12-30T01:56:42.862Z,2.20
2018-12-30T01:57:43.095Z,2.00
2018-12-30T01:59:47.256Z,1.50
2018-12-30T02:00:47.491Z,0.80
2018-12-30T02:02:51.679Z,1.20
2018-12-30T02:03:51.869Z,0.80
2018-12-30T02:05:56.032Z,1.00
2018-12-30T02:06:56.265Z,2.40
2018-12-30T02:09:00.405Z,2.10
2018-12-30T02:10:00.640Z,1.50
2018-12-30T02:12:04.804Z,1.30
2018-12-30T02:13:05.035Z,1.20
2018-12-30T02:14:58.137Z,2.20
2018-12-30T02:15:58.376Z,1.90
2018-12-30T02:18:02.515Z,1.00
2018-12-30T02:19:02.755Z,1.20
2018-12-30T02:21:06.918Z,1.30
2018-12-30T02:22:07.155Z,1.20
2018-12-30T02:24:11.289Z,0.80
2018-12-30T02:25:11.525Z,1.00
2018-12-30T02:27:15.688Z,1.30
2018-12-30T02:28:15.924Z,2.60
2018-12-30T02:30:20.105Z,3.00
2018-12-30T02:31:20.349Z,1.50
2018-12-30T02:33:24.492Z,0.90
2018-12-30T02:34:24.731Z,2.20
2018-12-30T02:36:28.898Z,1.10
2018-12-30T02:37:29.133Z,1.80
2018-12-30T02:39:33.277Z,1.80
2018-12-30T02:40:33.513Z,1.10
2018-12-30T02:42:37.674Z,1.30
2018-12-30T02:43:37.912Z,1.90
2018-12-30T02:45:42.095Z,0.50
2018-12-30T02:46:42.297Z,0.40
2018-12-30T02:48:46.463Z,1.40
2018-12-30T02:49:46.695Z,0.50
2018-12-30T02:51:50.857Z,0.80
2018-12-30T02:52:51.096Z,0.50
2018-12-30T02:54:44.169Z,1.10
2018-12-30T02:55:44.401Z,1.10
2018-12-30T02:57:48.565Z,0.90
2018-12-30T02:58:48.804Z,1.20
2018-12-30T03:00:52.949Z,0.90
2018-12-30T03:01:53.184Z,1.90
2018-12-30T03:03:57.351Z,1.40
2018-12-30T03:04:57.590Z,1.70
2018-12-30T03:07:01.756Z,0.90
2018-12-30T03:08:01.995Z,0.90
2018-12-30T03:10:06.139Z,1.20
2018-12-30T03:11:06.375Z,1.70
2018-12-30T03:13:10.540Z,0.50
2018-12-30T03:14:10.781Z,1.40
2018-12-30T03:16:14.923Z,1.10
2018-12-30T03:17:15.163Z,1.90
2018-12-30T03:19:19.338Z,0.70
2018-12-30T03:20:19.573Z,2.70
2018-12-30T03:22:23.737Z,0.80
2018-12-30T03:23:23.969Z,1.40
2018-12-30T03:25:17.055Z,3.20
2018-12-30T03:26:17.289Z,1.10
2018-12-30T03:28:21.457Z,1.50
2018-12-30T03:29:21.695Z,1.20
2018-12-30T03:31:25.855Z,1.20
2018-12-30T03:32:26.080Z,2.00
2018-12-30T03:34:30.248Z,1.70
2018-12-30T03:35:30.482Z,1.90
2018-12-30T03:37:34.652Z,4.80
2018-12-30T03:38:34.886Z,2.90
2018-12-30T03:40:39.033Z,1.10
2018-12-30T03:41:39.271Z,1.00
2018-12-30T03:43:43.438Z,2.50
2018-12-30T03:44:43.673Z,1.30
2018-12-30T03:46:47.818Z,2.20
2018-12-30T03:47:48.055Z,2.80
2018-12-30T03:49:52.217Z,2.90
2018-12-30T03:50:52.456Z,1.10
2018-12-30T03:52:56.622Z,2.30
2018-12-30T03:53:56.853Z,1.70
2018-12-30T03:56:00.998Z,2.50
2018-12-30T03:57:01.235Z,3.80
2018-12-30T03:59:05.399Z,3.30
2018-12-30T04:00:05.636Z,2.10
2018-12-30T04:02:09.783Z,4.30
2018-12-30T04:03:10.020Z,2.70
2018-12-30T04:05:03.111Z,2.90
2018-12-30T04:06:03.349Z,5.80
2018-12-30T04:08:07.508Z,4.20
2018-12-30T04:09:07.744Z,5.20
2018-12-30T04:11:11.890Z,4.70
2018-12-30T04:12:12.126Z,6.80
2018-12-30T04:14:16.292Z,2.50
2018-12-30T04:15:16.532Z,3.90
2018-12-30T04:17:20.661Z,3.90
2018-12-30T04:18:20.900Z,8.40
2018-12-30T04:20:25.101Z,5.40
2018-12-30T04:21:25.305Z,7.90
2018-12-30T04:23:29.470Z,4.20
2018-12-30T04:24:29.705Z,6.00
2018-12-30T04:26:33.846Z,7.10
2018-12-30T04:27:34.079Z,7.10
2018-12-30T04:29:38.241Z,4.40
2018-12-30T04:30:38.479Z,4.00
2018-12-30T04:32:42.625Z,7.60
2018-12-30T04:33:42.859Z,8.60
2018-12-30T04:35:47.024Z,6.70
2018-12-30T04:36:47.261Z,7.50
2018-12-30T04:38:51.422Z,4.60
2018-12-30T04:39:51.663Z,4.30
2018-12-30T04:41:55.809Z,7.70
2018-12-30T04:42:56.041Z,9.10
2018-12-30T04:44:49.131Z,8.30
2018-12-30T04:45:49.366Z,6.90
2018-12-30T04:47:53.510Z,7.80
2018-12-30T04:48:53.748Z,8.30
2018-12-30T04:50:57.911Z,5.80
2018-12-30T04:51:58.144Z,7.50
2018-12-30T04:54:02.313Z,9.70
2018-12-30T04:55:02.548Z,8.00
2018-12-30T04:57:06.689Z,8.00
2018-12-30T04:58:06.923Z,9.00
2018-12-30T05:00:11.088Z,6.20
2018-12-30T05:01:11.327Z,9.10
2018-12-30T05:03:15.461Z,7.60
2018-12-30T05:04:15.699Z,9.10
2018-12-30T05:06:19.863Z,8.70
2018-12-30T05:07:20.098Z,9.00
2018-12-30T05:09:24.266Z,7.30
2018-12-30T05:10:24.495Z,7.60
2018-12-30T05:12:28.641Z,8.20
2018-12-30T05:13:28.876Z,9.30
2018-12-30T05:15:21.967Z,6.40
2018-12-30T05:16:22.202Z,8.80
2018-12-30T05:18:26.353Z,7.20
2018-12-30T05:19:26.589Z,7.50
2018-12-30T05:21:30.767Z,10.70
2018-12-30T05:22:33.988Z,9.60
2018-12-30T05:24:35.180Z,10.00
2018-12-30T05:25:35.416Z,8.50
2018-12-30T05:27:39.556Z,9.80
2018-12-30T05:28:39.788Z,7.20
2018-12-30T05:30:43.951Z,6.90
2018-12-30T05:31:44.185Z,10.10
2018-12-30T05:33:48.331Z,7.70
2018-12-30T05:34:48.565Z,11.10
2018-12-30T05:36:52.726Z,7.90
2018-12-30T05:37:52.960Z,10.10
2018-12-30T05:39:57.099Z,10.90
2018-12-30T05:40:57.334Z,8.90
2018-12-30T05:43:01.502Z,10.10
2018-12-30T05:44:01.738Z,13.20
2018-12-30T05:46:05.895Z,10.10
2018-12-30T05:47:06.131Z,8.30
2018-12-30T05:49:10.275Z,10.10
2018-12-30T05:50:10.509Z,9.10
2018-12-30T05:52:14.672Z,11.50
2018-12-30T05:53:14.908Z,7.60
2018-12-30T05:55:07.977Z,10.30
2018-12-30T05:56:08.211Z,8.90
2018-12-30T05:58:12.379Z,8.10
2018-12-30T05:59:12.612Z,6.80
2018-12-30T06:01:16.776Z,10.90
2018-12-30T06:02:17.011Z,12.60
2018-12-30T06:04:21.158Z,8.10
2018-12-30T06:05:21.396Z,8.30
2018-12-30T06:07:25.555Z,8.40
2018-12-30T06:08:25.790Z,9.90
2018-12-30T06:10:29.936Z,14.00
2018-12-30T06:11:30.170Z,11.60
2018-12-30T06:13:34.356Z,10.60
2018-12-30T06:14:34.593Z,10.70
2018-12-30T06:16:38.761Z,9.70
2018-12-30T06:17:38.998Z,9.80
2018-12-30T06:19:43.143Z,12.60
2018-12-30T06:20:43.379Z,12.10
2018-12-30T06:22:49.623Z,8.90
2018-12-30T06:23:47.778Z,7.00
2018-12-30T06:25:51.919Z,11.60
2018-12-30T06:26:52.153Z,9.00
2018-12-30T06:28:56.317Z,11.40
2018-12-30T06:29:56.553Z,11.00
2018-12-30T06:32:00.719Z,10.40
2018-12-30T06:33:00.954Z,10.50
2018-12-30T06:34:54.023Z,12.30
2018-12-30T06:35:54.258Z,8.70
2018-12-30T06:37:58.535Z,14.90
2018-12-30T06:38:58.769Z,11.50
2018-12-30T06:41:02.912Z,12.00
2018-12-30T06:42:03.149Z,12.50
2018-12-30T06:44:07.311Z,10.80
2018-12-30T06:45:07.548Z,10.30
2018-12-30T06:47:11.784Z,8.90
2018-12-30T06:48:11.962Z,11.40
2018-12-30T06:50:16.106Z,8.80
2018-12-30T06:51:16.341Z,13.00
2018-12-30T06:53:20.514Z,10.30
2018-12-30T06:54:20.746Z,9.40
2018-12-30T06:56:24.886Z,13.40
2018-12-30T06:57:25.123Z,13.40
2018-12-30T06:59:29.289Z,12.70
2018-12-30T07:00:29.521Z,10.80
2018-12-30T07:02:33.694Z,11.90
2018-12-30T07:03:33.927Z,13.20
2018-12-30T07:05:27.001Z,14.70
2018-12-30T07:06:27.235Z,10.00
2018-12-30T07:08:31.402Z,14.70
2018-12-30T07:09:31.634Z,13.30
2018-12-30T07:11:35.777Z,13.50
2018-12-30T07:12:36.017Z,12.60
2018-12-30T07:14:40.176Z,10.90
2018-12-30T07:15:40.413Z,12.20
2018-12-30T07:17:44.558Z,12.70
2018-12-30T07:18:44.806Z,13.00
2018-12-30T07:20:48.957Z,11.30
2018-12-30T07:21:49.193Z,11.20
2018-12-30T07:23:53.360Z,11.40
2018-12-30T07:24:53.586Z,17.40
2018-12-30T07:26:57.731Z,15.40
2018-12-30T07:27:58.107Z,9.40
2018-12-30T07:30:02.279Z,11.80
2018-12-30T07:31:02.512Z,10.50
2018-12-30T07:33:06.652Z,9.00
2018-12-30T07:34:06.891Z,8.80
2018-12-30T07:36:11.054Z,8.80
2018-12-30T07:37:11.289Z,7.90
2018-12-30T07:39:15.456Z,7.90
2018-12-30T07:40:15.690Z,10.90
2018-12-30T07:42:19.841Z,12.80
2018-12-30T07:43:20.076Z,12.90
2018-12-30T07:45:13.170Z,11.80
2018-12-30T07:46:13.404Z,7.80
2018-12-30T07:48:17.546Z,9.20
2018-12-30T07:49:17.783Z,8.60
2018-12-30T07:51:21.955Z,13.20
2018-12-30T07:52:22.188Z,9.30
2018-12-30T07:54:26.362Z,8.90
2018-12-30T07:55:26.600Z,10.40
2018-12-30T07:57:30.742Z,10.30
2018-12-30T07:58:30.976Z,9.20
2018-12-30T08:00:35.137Z,7.00
2018-12-30T08:01:35.372Z,9.90
2018-12-30T08:03:39.517Z,10.70
2018-12-30T08:04:39.750Z,11.50
2018-12-30T08:06:43.916Z,10.50
2018-12-30T08:07:44.147Z,12.40
2018-12-30T08:09:48.322Z,10.90
2018-12-30T08:10:48.556Z,10.60
2018-12-30T08:12:52.698Z,7.60
2018-12-30T08:13:52.934Z,8.60
2018-12-30T08:15:57.099Z,6.20
2018-12-30T08:16:57.332Z,13.80
2018-12-30T08:19:01.476Z,12.80
2018-12-30T08:20:01.709Z,8.30
2018-12-30T08:22:05.877Z,9.20
2018-12-30T08:23:06.111Z,8.70
2018-12-30T08:24:59.191Z,9.60
2018-12-30T08:25:59.467Z,10.20
2018-12-30T08:28:03.579Z,7.90
2018-12-30T08:29:03.817Z,9.40
2018-12-30T08:31:07.979Z,8.60
2018-12-30T08:32:08.215Z,10.90
2018-12-30T08:34:12.359Z,9.40
2018-12-30T08:35:12.595Z,10.30
2018-12-30T08:37:16.761Z,13.00
2018-12-30T08:38:16.995Z,7.40
2018-12-30T08:40:21.137Z,9.90
2018-12-30T08:41:21.373Z,9.20
2018-12-30T08:43:25.551Z,8.50
2018-12-30T08:44:25.787Z,8.80
2018-12-30T08:46:29.949Z,5.30
2018-12-30T08:47:30.186Z,5.50
2018-12-30T08:49:34.330Z,7.00
2018-12-30T08:50:34.567Z,7.00
2018-12-30T08:52:38.729Z,8.30
2018-12-30T08:53:38.963Z,4.80
2018-12-30T08:55:43.106Z,6.30
2018-12-30T08:56:43.340Z,3.70
2018-12-30T08:58:47.519Z,7.80
2018-12-30T08:59:47.746Z,5.00
2018-12-30T09:01:51.907Z,8.50
2018-12-30T09:02:52.143Z,6.10
2018-12-30T09:04:45.210Z,4.90
2018-12-30T09:05:45.446Z,7.80
2018-12-30T09:07:49.620Z,5.90
2018-12-30T09:08:49.851Z,8.30
2018-12-30T09:10:55.263Z,6.10
2018-12-30T09:11:54.231Z,5.10
2018-12-30T09:13:58.398Z,5.90
2018-12-30T09:14:58.633Z,5.60
2018-12-30T09:17:02.799Z,7.30
2018-12-30T09:18:04.004Z,8.50
2018-12-30T09:20:07.176Z,7.90
2018-12-30T09:21:07.412Z,7.80
2018-12-30T09:23:11.588Z,6.70
2018-12-30T09:24:11.825Z,8.20
2018-12-30T09:26:15.971Z,9.10
2018-12-30T09:27:16.206Z,9.40
2018-12-30T09:29:20.415Z,10.10
2018-12-30T09:30:20.611Z,8.70
2018-12-30T09:32:24.783Z,7.20
2018-12-30T09:33:25.022Z,7.90
2018-12-30T09:35:18.096Z,8.20
2018-12-30T09:36:18.326Z,8.50
2018-12-30T09:38:22.493Z,9.20
2018-12-30T09:39:22.728Z,3.70
2018-12-30T09:41:26.871Z,6.90
2018-12-30T09:42:27.101Z,8.60
2018-12-30T09:44:31.267Z,5.80
2018-12-30T09:45:31.505Z,6.10
2018-12-30T09:47:35.646Z,6.70
2018-12-30T09:48:35.882Z,8.70
2018-12-30T09:50:40.044Z,5.50
2018-12-30T09:51:40.283Z,4.50
2018-12-30T09:53:45.211Z,7.90
2018-12-30T09:54:44.678Z,5.30
2018-12-30T09:56:48.822Z,7.70
2018-12-30T09:57:49.079Z,7.00
2018-12-30T09:59:53.267Z,4.70
2018-12-30T10:00:53.504Z,7.20
2018-12-30T10:02:57.663Z,10.50
2018-12-30T10:03:57.898Z,8.00
2018-12-30T10:06:02.042Z,6.70
2018-12-30T10:07:02.273Z,7.40
2018-12-30T10:09:06.435Z,9.60
2018-12-30T10:10:06.670Z,6.70
2018-12-30T10:12:10.813Z,7.90
2018-12-30T10:13:11.047Z,6.40
2018-12-30T10:15:09.575Z,7.70
2018-12-30T10:16:04.379Z,4.80
2018-12-30T10:18:08.542Z,5.30
2018-12-30T10:19:08.776Z,7.60
2018-12-30T10:21:12.918Z,4.50
2018-12-30T10:22:13.156Z,8.10
2018-12-30T10:24:17.317Z,6.00
2018-12-30T10:25:17.557Z,4.20
2018-12-30T10:27:21.696Z,4.60
2018-12-30T10:28:21.933Z,6.50
2018-12-30T10:30:26.766Z,3.40
2018-12-30T10:31:26.330Z,7.40
2018-12-30T10:33:30.493Z,6.10
2018-12-30T10:34:30.728Z,6.60
2018-12-30T10:36:34.870Z,6.10
2018-12-30T10:37:35.103Z,5.50
2018-12-30T10:39:39.270Z,5.70
2018-12-30T10:40:39.503Z,3.20
2018-12-30T10:42:43.678Z,5.30
2018-12-30T10:43:43.882Z,5.60
2018-12-30T10:45:48.047Z,8.90
2018-12-30T10:46:48.283Z,5.30
2018-12-30T10:48:52.424Z,6.20
2018-12-30T10:49:52.657Z,7.30
2018-12-30T10:51:56.826Z,5.80
2018-12-30T10:52:57.061Z,4.80
2018-12-30T10:54:50.157Z,3.10
2018-12-30T10:55:50.393Z,4.40
2018-12-30T10:57:54.548Z,4.30
2018-12-30T10:58:54.787Z,5.20
2018-12-30T11:00:58.947Z,2.50
2018-12-30T11:01:59.183Z,4.30
2018-12-30T11:04:03.331Z,3.20
2018-12-30T11:05:03.565Z,20.40
2018-12-30T11:07:07.733Z,18.80
2018-12-30T11:08:07.969Z,6.40
2018-12-30T11:10:12.136Z,8.80
2018-12-30T11:11:12.372Z,7.10
2018-12-30T11:13:16.518Z,8.60
2018-12-30T11:14:16.756Z,6.60
2018-12-30T11:16:20.919Z,32.90
2018-12-30T11:17:21.154Z,9.80
2018-12-30T11:19:25.297Z,7.30
2018-12-30T11:20:25.530Z,5.10
2018-12-30T11:22:29.696Z,5.50
2018-12-30T11:23:29.936Z,4.80
2018-12-30T11:25:23.070Z,5.60
2018-12-30T11:26:23.306Z,6.50
2018-12-30T11:28:27.451Z,9.40
2018-12-30T11:29:27.690Z,6.10
2018-12-30T11:31:31.850Z,5.80
2018-12-30T11:32:32.089Z,5.60
2018-12-30T11:34:36.233Z,4.70
2018-12-30T11:35:36.470Z,6.00
2018-12-30T11:37:40.645Z,5.80
2018-12-30T11:38:40.883Z,5.10
2018-12-30T11:40:45.023Z,5.50
2018-12-30T11:41:45.260Z,4.80
2018-12-30T11:43:49.426Z,2.60
2018-12-30T11:44:49.659Z,5.50
2018-12-30T11:46:53.825Z,8.50
2018-12-30T11:47:54.060Z,3.60
2018-12-30T11:49:58.207Z,3.30
2018-12-30T11:50:58.443Z,3.10
2018-12-30T11:53:02.627Z,5.30
2018-12-30T11:54:02.856Z,6.30
2018-12-30T11:56:07.014Z,3.40
2018-12-30T11:57:07.237Z,5.80
2018-12-30T11:59:11.410Z,4.20
2018-12-30T12:00:11.645Z,4.00
2018-12-30T12:02:15.812Z,3.30
2018-12-30T12:03:16.049Z,5.90
2018-12-30T12:05:09.130Z,6.30
2018-12-30T12:06:09.368Z,9.50
2018-12-30T12:08:13.537Z,4.00
2018-12-30T12:09:13.773Z,5.10
2018-12-30T12:11:17.921Z,39.20
2018-12-30T12:12:18.155Z,12.10
2018-12-30T12:14:22.321Z,5.30
2018-12-30T12:15:22.560Z,7.30
2018-12-30T12:17:26.728Z,4.30
2018-12-30T12:18:26.963Z,4.40
2018-12-30T12:20:31.121Z,5.20
2018-12-30T12:21:31.357Z,4.50
2018-12-30T12:23:35.525Z,2.80
2018-12-30T12:24:35.762Z,3.90
2018-12-30T12:26:39.908Z,2.00
2018-12-30T12:27:40.143Z,3.40
2018-12-30T12:29:44.307Z,3.50
2018-12-30T12:30:44.545Z,5.40
2018-12-30T12:32:48.714Z,2.90
2018-12-30T12:33:48.951Z,4.50
2018-12-30T12:35:53.098Z,3.20
2018-12-30T12:36:53.338Z,3.20
2018-12-30T12:38:57.505Z,4.30
2018-12-30T12:39:57.742Z,4.70
2018-12-30T12:42:01.887Z,4.50
2018-12-30T12:43:02.125Z,4.10
2018-12-30T12:44:55.220Z,2.40
2018-12-30T12:45:55.453Z,3.00
2018-12-30T12:47:59.620Z,4.60
2018-12-30T12:48:59.859Z,3.90
2018-12-30T12:51:04.004Z,4.40
2018-12-30T12:52:04.242Z,5.10
2018-12-30T12:54:08.417Z,3.60
2018-12-30T12:55:08.654Z,7.20
2018-12-30T12:57:12.802Z,4.00
2018-12-30T12:58:13.039Z,5.70
2018-12-30T13:00:17.206Z,3.00
2018-12-30T13:01:17.442Z,6.00
2018-12-30T13:03:21.648Z,2.70
2018-12-30T13:04:21.881Z,4.60
2018-12-30T13:06:26.027Z,5.20
2018-12-30T13:07:26.262Z,4.50
2018-12-30T13:09:30.433Z,3.80
2018-12-30T13:10:30.672Z,4.10
2018-12-30T13:12:34.826Z,5.10
2018-12-30T13:13:35.062Z,4.70
2018-12-30T13:15:28.180Z,3.50
2018-12-30T13:16:28.414Z,4.20
2018-12-30T13:18:32.561Z,3.90
2018-12-30T13:19:32.794Z,4.40
2018-12-30T13:21:36.960Z,5.60
2018-12-30T13:22:37.201Z,5.50
2018-12-30T13:24:41.367Z,4.40
2018-12-30T13:25:41.603Z,7.20
2018-12-30T13:27:45.752Z,2.50
2018-12-30T13:28:45.987Z,3.70
2018-12-30T13:30:50.156Z,3.40
2018-12-30T13:31:50.395Z,3.10
2018-12-30T13:33:54.567Z,3.30
2018-12-30T13:34:54.803Z,3.40
2018-12-30T13:36:58.966Z,2.70
2018-12-30T13:37:59.189Z,3.60
2018-12-30T13:40:03.354Z,3.40
2018-12-30T13:41:03.590Z,3.70
2018-12-30T13:43:07.739Z,7.10
2018-12-30T13:44:07.978Z,3.20
2018-12-30T13:46:12.149Z,3.70
2018-12-30T13:47:12.385Z,4.30
2018-12-30T13:49:16.569Z,4.50
2018-12-30T13:50:16.808Z,2.80
2018-12-30T13:52:20.950Z,4.70
2018-12-30T13:53:21.190Z,4.70
2018-12-30T13:55:14.289Z,2.40
2018-12-30T13:56:14.525Z,3.90
2018-12-30T13:58:18.715Z,2.90
2018-12-30T13:59:18.910Z,6.30
2018-12-30T14:01:23.074Z,2.70
2018-12-30T14:02:23.311Z,2.60
2018-12-30T14:04:29.193Z,4.70
2018-12-30T14:05:27.750Z,5.10
2018-12-30T14:07:31.896Z,3.80
2018-12-30T14:08:32.130Z,3.60
2018-12-30T14:10:36.293Z,1.90
2018-12-30T14:11:36.532Z,6.20
2018-12-30T14:13:40.673Z,1.90
2018-12-30T14:14:40.910Z,2.60
2018-12-30T14:16:45.077Z,1.60
2018-12-30T14:17:45.313Z,2.40
2018-12-30T14:19:49.566Z,3.90
2018-12-30T14:20:49.839Z,1.30
2018-12-30T14:22:54.154Z,3.50
2018-12-30T14:23:54.489Z,4.10
2018-12-30T14:25:58.729Z,4.20
2018-12-30T14:26:59.897Z,4.20
2018-12-30T14:29:03.059Z,3.30
2018-12-30T14:30:03.332Z,5.00
2018-12-30T14:32:07.686Z,3.80
2018-12-30T14:33:07.955Z,5.80
2018-12-30T14:35:01.085Z,2.70
2018-12-30T14:36:01.318Z,3.70
2018-12-30T14:38:05.544Z,3.50
2018-12-30T14:39:05.880Z,2.60
2018-12-30T14:41:10.212Z,3.70
2018-12-30T14:42:10.516Z,2.30
2018-12-30T14:44:14.668Z,4.60
2018-12-30T14:45:15.031Z,2.80
2018-12-30T14:47:19.320Z,3.00
2018-12-30T14:48:19.672Z,3.90
2018-12-30T14:50:23.976Z,3.80
2018-12-30T14:51:24.297Z,2.90
2018-12-30T14:53:28.581Z,3.30
2018-12-30T14:54:28.898Z,7.20
2018-12-30T14:56:33.261Z,3.60
2018-12-30T14:57:33.519Z,2.80
2018-12-30T14:59:37.704Z,2.80
2018-12-30T15:00:38.066Z,2.90
2018-12-30T15:02:42.352Z,2.60
2018-12-30T15:03:42.668Z,3.20
2018-12-30T15:05:46.976Z,2.20
2018-12-30T15:06:47.271Z,4.40
2018-12-30T15:08:51.409Z,3.40
2018-12-30T15:09:51.769Z,3.00
2018-12-30T15:11:56.016Z,2.40
2018-12-30T15:12:56.309Z,3.00
2018-12-30T15:14:49.390Z,4.30
2018-12-30T15:15:49.713Z,4.90
2018-12-30T15:17:54.034Z,5.80
2018-12-30T15:18:54.377Z,3.60
2018-12-30T15:20:59.576Z,4.00
2018-12-30T15:21:59.018Z,4.60
2018-12-30T15:24:03.239Z,3.50
2018-12-30T15:25:11.325Z,2.40
2018-12-30T15:27:07.761Z,2.40
2018-12-30T15:28:08.077Z,4.80
2018-12-30T15:30:12.255Z,4.50
2018-12-30T15:31:12.489Z,5.30
2018-12-30T15:33:16.650Z,6.80
2018-12-30T15:34:16.982Z,9.80
2018-12-30T15:36:21.092Z,25.20
2018-12-30T15:37:21.326Z,17.80
2018-12-30T15:39:25.473Z,18.10
2018-12-30T15:40:25.708Z,15.40
2018-12-30T15:42:29.875Z,11.20
2018-12-30T15:43:30.109Z,4.60
2018-12-30T15:45:23.260Z,5.80
2018-12-30T15:46:23.420Z,8.30
2018-12-30T15:48:27.586Z,5.40
2018-12-30T15:49:27.823Z,4.40
2018-12-30T15:51:31.983Z,4.20
2018-12-30T15:52:32.224Z,5.00
2018-12-30T15:54:36.365Z,5.00
2018-12-30T15:55:36.596Z,6.00
2018-12-30T15:57:40.763Z,3.20
2018-12-30T15:58:40.998Z,4.10
2018-12-30T16:00:45.145Z,5.60
2018-12-30T16:01:45.379Z,4.40
2018-12-30T16:03:49.545Z,6.30
2018-12-30T16:04:49.779Z,7.40
2018-12-30T16:06:53.945Z,7.30
2018-12-30T16:07:54.178Z,5.30
2018-12-30T16:09:58.321Z,4.90
2018-12-30T16:10:58.561Z,5.10
2018-12-30T16:13:02.725Z,4.70
2018-12-30T16:14:02.959Z,4.10
2018-12-30T16:16:07.105Z,4.40
2018-12-30T16:17:07.340Z,5.40
2018-12-30T16:19:11.510Z,4.00
2018-12-30T16:20:11.744Z,14.10
2018-12-30T16:22:15.905Z,4.70
2018-12-30T16:23:16.140Z,4.60
2018-12-30T16:25:09.214Z,4.50
2018-12-30T16:26:09.452Z,4.60
2018-12-30T16:28:13.622Z,5.00
2018-12-30T16:29:13.857Z,4.40
2018-12-30T16:31:18.004Z,4.90
2018-12-30T16:32:18.241Z,5.40
2018-12-30T16:34:22.407Z,6.50
2018-12-30T16:35:22.639Z,6.80
2018-12-30T16:37:26.784Z,6.90
2018-12-30T16:38:27.019Z,6.00
2018-12-30T16:40:31.196Z,4.80
2018-12-30T16:41:31.434Z,5.60
2018-12-30T16:43:35.602Z,5.90
2018-12-30T16:44:35.838Z,3.50
2018-12-30T16:46:39.985Z,9.30
2018-12-30T16:47:41.961Z,7.20
2018-12-30T16:49:44.387Z,5.20
2018-12-30T16:50:44.624Z,5.40
2018-12-30T16:52:48.764Z,9.00
2018-12-30T16:53:48.999Z,6.70
2018-12-30T16:55:53.179Z,5.70
2018-12-30T16:56:53.484Z,6.20
2018-12-30T16:58:57.646Z,5.70
2018-12-30T16:59:57.881Z,7.70
2018-12-30T17:02:02.024Z,10.00
2018-12-30T17:03:02.259Z,7.10
2018-12-30T17:04:55.353Z,8.10
2018-12-30T17:05:55.596Z,8.00
2018-12-30T17:07:59.737Z,8.00
2018-12-30T17:08:59.976Z,8.50
2018-12-30T17:11:04.137Z,7.60
2018-12-30T17:12:04.370Z,7.90
2018-12-30T17:14:08.533Z,9.00
2018-12-30T17:15:08.769Z,5.40
2018-12-30T17:17:12.915Z,8.80
2018-12-30T17:18:13.147Z,9.00
2018-12-30T17:20:17.322Z,6.50
2018-12-30T17:21:17.559Z,7.00
2018-12-30T17:23:21.703Z,7.50
2018-12-30T17:24:21.941Z,5.90
2018-12-30T17:26:26.102Z,9.70
2018-12-30T17:27:26.337Z,10.10
2018-12-30T17:29:30.501Z,10.00
2018-12-30T17:30:30.738Z,11.80
2018-12-30T17:32:34.883Z,7.60
2018-12-30T17:33:35.117Z,9.70
2018-12-30T17:35:28.213Z,12.20
2018-12-30T17:36:28.449Z,10.10
2018-12-30T17:38:32.594Z,8.50
2018-12-30T17:39:32.827Z,13.00
2018-12-30T17:41:36.990Z,9.30
2018-12-30T17:42:37.224Z,8.80
2018-12-30T17:44:41.390Z,13.50
2018-12-30T17:45:41.621Z,10.50
2018-12-30T17:47:45.768Z,13.80
2018-12-30T17:48:46.003Z,11.60
2018-12-30T17:50:50.337Z,10.70
2018-12-30T17:51:50.561Z,12.50
2018-12-30T17:53:54.707Z,14.10
2018-12-30T17:54:54.946Z,14.50
2018-12-30T17:56:59.114Z,14.10
2018-12-30T17:57:59.345Z,14.40
2018-12-30T18:00:03.512Z,18.50
2018-12-30T18:01:03.933Z,14.80
2018-12-30T18:03:08.077Z,15.80
2018-12-30T18:04:08.309Z,17.70
2018-12-30T18:06:12.474Z,17.50
2018-12-30T18:07:12.712Z,15.10
2018-12-30T18:09:16.869Z,21.90
2018-12-30T18:10:17.092Z,20.80
2018-12-30T18:12:21.265Z,15.80
2018-12-30T18:13:21.502Z,19.80
2018-12-30T18:15:14.692Z,21.30
2018-12-30T18:16:14.922Z,20.80
2018-12-30T18:18:19.063Z,20.50
2018-12-30T18:19:19.302Z,20.50
2018-12-30T18:21:23.708Z,18.50
2018-12-30T18:22:23.786Z,20.90
2018-12-30T18:24:27.932Z,19.20
2018-12-30T18:25:28.172Z,21.30
2018-12-30T18:27:32.389Z,19.90
2018-12-30T18:28:32.642Z,20.00
2018-12-30T18:30:37.003Z,20.20
2018-12-30T18:31:37.040Z,20.70
2018-12-30T18:33:42.270Z,23.20
2018-12-30T18:34:42.654Z,20.40
2018-12-30T18:36:46.900Z,25.70
2018-12-30T18:37:47.143Z,21.90
2018-12-30T18:39:51.320Z,20.10
2018-12-30T18:40:51.647Z,24.10
2018-12-30T18:42:56.006Z,23.10
2018-12-30T18:43:56.398Z,22.30
2018-12-30T18:46:00.805Z,22.30
2018-12-30T18:47:00.772Z,23.20
2018-12-30T18:49:04.911Z,22.00
2018-12-30T18:50:05.297Z,22.00
2018-12-30T18:52:09.660Z,23.00
2018-12-30T18:53:09.985Z,22.50
2018-12-30T18:55:03.169Z,27.20
2018-12-30T18:56:06.969Z,24.50
2018-12-30T18:58:07.830Z,24.00
2018-12-30T18:59:08.123Z,28.50
2018-12-30T19:01:12.443Z,28.10
2018-12-30T19:02:12.744Z,24.60
2018-12-30T19:04:16.857Z,30.40
2018-12-30T19:05:17.186Z,27.90
2018-12-30T19:07:21.488Z,25.40
2018-12-30T19:08:21.720Z,29.30
2018-12-30T19:10:25.926Z,24.30
2018-12-30T19:11:26.267Z,26.20
2018-12-30T19:13:30.575Z,32.10
2018-12-30T19:14:30.951Z,27.90
2018-12-30T19:16:35.243Z,26.00
2018-12-30T19:17:35.524Z,24.70
2018-12-30T19:19:39.672Z,27.40
2018-12-30T19:20:39.994Z,27.00
2018-12-30T19:22:44.332Z,25.60
2018-12-30T19:23:44.563Z,23.30
2018-12-30T19:25:48.702Z,25.40
2018-12-30T19:26:48.937Z,25.30
2018-12-30T19:28:53.108Z,23.00
2018-12-30T19:29:53.343Z,23.10
2018-12-30T19:31:57.511Z,26.10
2018-12-30T19:32:57.746Z,26.40
2018-12-30T19:34:50.821Z,29.60
2018-12-30T19:35:51.057Z,31.80
2018-12-30T19:37:55.222Z,28.10
2018-12-30T19:38:55.459Z,27.40
2018-12-30T19:40:59.601Z,29.20
2018-12-30T19:41:59.841Z,27.80
2018-12-30T19:44:04.017Z,31.00
2018-12-30T19:45:04.240Z,29.30
2018-12-30T19:47:08.406Z,29.00
2018-12-30T19:48:08.645Z,38.00
2018-12-30T19:50:12.790Z,26.30
2018-12-30T19:51:13.023Z,27.90
2018-12-30T19:53:17.189Z,30.40
2018-12-30T19:54:17.425Z,29.80
2018-12-30T19:56:22.113Z,28.10
2018-12-30T19:57:21.801Z,26.80
2018-12-30T19:59:25.968Z,29.50
2018-12-30T20:00:26.255Z,27.70
2018-12-30T20:02:30.425Z,30.80
2018-12-30T20:03:30.729Z,26.40
2018-12-30T20:05:23.801Z,24.50
2018-12-30T20:06:24.035Z,28.50
2018-12-30T20:08:28.261Z,31.50